Time;durP1;ratioP1;P1;durP2;ratioP2;P2;SDS_P1;SDS_P2;PMS_P1;PMS_P2;Temp;Humidity;BMP_temperature;BMP_pressure;BME280_temperature;BME280_humidity;BME280_pressure;Samples;Min_cycle;Max_cycle;Signal;HPM_P1;HPM_P2
2021/11/01 00:02:12;;;;;;;119.70;63.68;;;;;;;5.90;80.73;100608.20;1723811;83;21653;-80
2021/11/01 00:04:43;;;;;;;111.10;60.65;;;;;;;5.87;80.73;100614.17;1723670;82;21048;-80
2021/11/01 00:07:07;;;;;;;102.10;58.75;;;;;;;5.83;80.70;100607.05;1723424;83;21076;-80
2021/11/01 00:09:34;;;;;;;96.55;57.45;;;;;;;5.78;80.76;100603.34;1723837;83;21905;-80
2021/11/01 00:12:00;;;;;;;100.10;56.42;;;;;;;5.73;80.63;100607.50;1723712;83;21127;-80
2021/11/01 00:14:27;;;;;;;87.47;55.88;;;;;;;5.66;80.65;100599.81;1723909;83;21053;-80
2021/11/01 00:16:54;;;;;;;89.20;53.58;;;;;;;5.61;80.73;100602.23;1723721;83;21294;-81
2021/11/01 00:19:22;;;;;;;81.65;52.03;;;;;;;5.59;80.83;100603.89;1723822;83;21070;-80
2021/11/01 00:21:49;;;;;;;83.97;52.10;;;;;;;5.58;80.90;100602.52;1723746;82;21833;-81
2021/11/01 00:24:15;;;;;;;80.85;51.70;;;;;;;5.56;80.88;100597.66;1723645;83;21046;-81
2021/11/01 00:26:44;;;;;;;85.15;52.93;;;;;;;5.52;80.83;100588.79;1723352;82;21133;-80
2021/11/01 00:29:10;;;;;;;81.37;50.40;;;;;;;5.48;80.90;100584.27;1723800;83;21061;-81
2021/11/01 00:31:37;;;;;;;76.17;50.12;;;;;;;5.47;81.05;100585.50;1723860;83;21489;-81
2021/11/01 00:34:04;;;;;;;81.22;48.87;;;;;;;5.45;81.08;100573.69;1723691;83;22558;-81
2021/11/01 00:36:30;;;;;;;71.35;46.00;;;;;;;5.42;81.12;100564.41;1723602;83;21092;-81
2021/11/01 00:38:57;;;;;;;70.83;44.88;;;;;;;5.41;81.24;100564.83;1723632;83;21551;-81
2021/11/01 00:41:24;;;;;;;74.77;45.75;;;;;;;5.40;81.24;100561.73;1723529;83;21135;-80
2021/11/01 00:43:50;;;;;;;74.12;45.38;;;;;;;5.38;81.32;100550.33;1723740;81;22311;-80
2021/11/01 00:46:17;;;;;;;71.95;43.13;;;;;;;5.36;81.31;100548.07;1723539;81;21757;-80
2021/11/01 00:48:44;;;;;;;58.92;41.25;;;;;;;5.36;81.37;100541.55;1723628;82;21117;-81
2021/11/01 00:51:10;;;;;;;71.65;44.77;;;;;;;5.35;81.37;100546.70;1723824;83;21651;-80
2021/11/01 00:53:44;;;;;;;68.05;44.48;;;;;;;5.35;81.54;100534.95;1723731;82;21045;-81
2021/11/01 00:56:05;;;;;;;76.07;45.33;;;;;;;5.35;81.51;100533.25;1722165;83;21026;-81
2021/11/01 00:58:33;;;;;;;72.32;44.83;;;;;;;5.35;81.54;100532.34;1723227;83;21788;-81
2021/11/01 01:01:00;;;;;;;74.62;42.93;;;;;;;5.36;81.65;100528.92;1723490;83;21117;-81
2021/11/01 01:03:26;;;;;;;70.80;43.23;;;;;;;5.36;81.60;100525.00;1723604;82;21065;-81
2021/11/01 01:05:58;;;;;;;73.92;42.62;;;;;;;5.35;81.56;100523.20;1723638;83;21168;-81
2021/11/01 01:08:22;;;;;;;75.22;43.90;;;;;;;5.33;81.51;100521.86;1723349;83;21062;-80
2021/11/01 01:10:51;;;;;;;66.00;40.95;;;;;;;5.31;81.61;100516.08;1723466;83;21555;-80
2021/11/01 01:13:18;;;;;;;66.77;42.03;;;;;;;5.30;81.59;100516.50;1723450;83;21030;-81
2021/11/01 01:18:15;;;;;;;66.45;41.08;;;;;;;5.32;81.74;100506.13;1723488;83;21190;-81
2021/11/01 01:20:42;;;;;;;56.68;36.93;;;;;;;5.31;81.70;100505.25;1723571;83;21459;-81
2021/11/01 01:23:08;;;;;;;60.25;37.35;;;;;;;5.32;81.74;100500.91;1723554;83;21763;-81
2021/11/01 01:25:41;;;;;;;57.78;37.08;;;;;;;5.31;81.73;100497.42;1723397;83;21045;-81
2021/11/01 01:28:08;;;;;;;59.18;36.55;;;;;;;5.31;81.74;100495.20;1723803;83;21042;-81
2021/11/01 01:30:36;;;;;;;50.78;34.23;;;;;;;5.30;81.74;100489.09;1723582;83;21144;-81
2021/11/01 01:33:02;;;;;;;55.23;34.83;;;;;;;5.30;81.78;100481.27;1723727;82;21096;-81
2021/11/01 01:35:30;;;;;;;51.53;34.15;;;;;;;5.32;81.78;100485.26;1723585;83;22406;-81
2021/11/01 01:37:57;;;;;;;48.02;33.75;;;;;;;5.31;81.82;100479.55;1723450;82;21057;-81
2021/11/01 01:40:24;;;;;;;48.92;31.97;;;;;;;5.30;81.79;100479.97;1723526;83;21061;-81
2021/11/01 01:42:51;;;;;;;48.25;32.98;;;;;;;5.31;81.91;100480.45;1723462;82;21134;-81
2021/11/01 01:45:18;;;;;;;50.90;33.63;;;;;;;5.31;81.85;100479.16;1723478;83;21578;-81
2021/11/01 01:47:45;;;;;;;48.28;33.38;;;;;;;5.30;81.78;100470.83;1723619;83;21788;-81
2021/11/01 01:50:13;;;;;;;46.33;31.90;;;;;;;5.29;81.78;100472.06;1723693;81;21058;-81
2021/11/01 01:52:41;;;;;;;45.48;32.08;;;;;;;5.30;81.82;100467.34;1695892;83;21037;-81
2021/11/01 01:55:09;;;;;;;49.25;32.53;;;;;;;5.29;81.81;100463.81;1720596;83;21645;-81
2021/11/01 01:57:36;;;;;;;49.42;34.08;;;;;;;5.30;81.86;100459.52;1715409;83;21117;-81
2021/11/01 02:00:07;;;;;;;50.03;33.60;;;;;;;5.29;81.90;100454.68;1715298;83;22609;-81
2021/11/01 02:02:34;;;;;;;47.48;32.17;;;;;;;5.30;81.91;100450.37;1715252;83;21398;-82
2021/11/01 02:05:00;;;;;;;51.20;32.58;;;;;;;5.30;81.98;100444.73;1715197;83;21077;-82
2021/11/01 02:07:33;;;;;;;45.92;32.38;;;;;;;5.34;82.04;100441.84;1715280;83;22525;-82
2021/11/01 02:10:12;;;;;;;44.15;30.72;;;;;;;5.36;82.04;100441.48;1715312;83;21121;-82
2021/11/01 02:12:50;;;;;;;42.38;30.52;;;;;;;5.35;82.02;100438.38;1715487;83;21774;-81
2021/11/01 02:15:44;;;;;;;49.75;31.40;;;;;;;5.37;82.04;100433.72;1715317;83;21081;-81
2021/11/01 02:18:11;;;;;;;47.67;32.05;;;;;;;5.37;82.01;100431.53;1714394;83;21061;-82
2021/11/01 02:21:02;;;;;;;48.60;30.85;;;;;;;5.37;82.00;100425.02;1715262;83;21628;-80
2021/11/01 02:23:52;;;;;;;44.58;30.65;;;;;;;5.36;81.96;100419.30;1710469;83;21034;-81
2021/11/01 02:26:20;;;;;;;45.98;31.25;;;;;;;5.35;82.03;100416.20;1713869;83;21950;-82
2021/11/01 02:28:47;;;;;;;45.92;30.55;;;;;;;5.35;81.98;100410.98;1715377;83;21043;-81
2021/11/01 02:31:19;;;;;;;44.00;30.40;;;;;;;5.35;81.96;100408.37;1715514;83;21097;-81
2021/11/01 02:33:48;;;;;;;47.60;30.45;;;;;;;5.35;82.08;100400.15;1715596;83;21108;-81
2021/11/01 02:36:14;;;;;;;49.88;32.28;;;;;;;5.35;81.95;100399.23;1715606;83;21100;-81
2021/11/01 02:38:41;;;;;;;48.55;32.30;;;;;;;5.33;81.91;100395.28;1715398;83;21760;-80
2021/11/01 02:41:32;;;;;;;46.28;31.77;;;;;;;5.32;81.88;100396.09;1715345;83;21062;-80
2021/11/01 02:44:03;;;;;;;44.20;30.72;;;;;;;5.31;81.87;100391.72;1715289;83;21600;-81
2021/11/01 02:46:29;;;;;;;49.27;32.73;;;;;;;5.30;81.87;100387.75;1715374;83;21054;-81
2021/11/01 02:48:56;;;;;;;54.75;34.63;;;;;;;5.31;81.84;100385.20;1715549;82;21575;-81
2021/11/01 02:51:25;;;;;;;54.77;34.60;;;;;;;5.27;81.68;100387.19;1715496;83;22646;-81
2021/11/01 02:53:51;;;;;;;52.13;35.80;;;;;;;5.21;81.63;100380.00;1715647;83;21512;-81
2021/11/01 02:56:20;;;;;;;51.50;34.88;;;;;;;5.17;81.59;100387.23;1715471;83;21121;-82
2021/11/01 02:58:47;;;;;;;56.77;35.52;;;;;;;5.13;81.56;100380.53;1715551;83;21282;-81
2021/11/01 03:01:16;;;;;;;61.37;38.98;;;;;;;5.09;81.58;100377.30;1715831;83;21097;-81
2021/11/01 03:03:43;;;;;;;65.22;38.88;;;;;;;5.05;81.49;100373.70;1715641;83;21748;-81
2021/11/01 03:06:12;;;;;;;60.05;37.80;;;;;;;4.99;81.50;100369.13;1715540;83;21110;-80
2021/11/01 03:08:39;;;;;;;55.90;36.55;;;;;;;4.94;81.47;100370.64;1715637;83;21077;-81
2021/11/01 03:11:06;;;;;;;59.75;36.13;;;;;;;4.89;81.46;100365.64;1715338;83;21069;-81
2021/11/01 03:13:35;;;;;;;52.10;34.65;;;;;;;4.84;81.47;100366.77;1715792;82;21023;-81
2021/11/01 03:16:04;;;;;;;55.73;33.35;;;;;;;4.82;81.55;100369.73;1715589;83;21822;-81
2021/11/01 03:18:41;;;;;;;52.40;34.60;;;;;;;4.80;81.58;100360.04;1715408;83;21125;-81
2021/11/01 03:21:08;;;;;;;49.98;33.53;;;;;;;4.77;81.66;100358.20;1684796;83;21061;-81
2021/11/01 03:23:35;;;;;;;47.45;33.60;;;;;;;4.77;81.80;100346.47;1715509;83;22396;-82
2021/11/01 03:26:06;;;;;;;50.33;32.78;;;;;;;4.78;81.90;100346.05;1715255;83;21077;-81
2021/11/01 03:28:32;;;;;;;52.88;33.70;;;;;;;4.78;81.92;100347.35;1715099;83;21819;-81
2021/11/01 03:31:01;;;;;;;50.08;32.23;;;;;;;4.78;82.01;100343.02;1715358;82;21126;-81
2021/11/01 03:33:29;;;;;;;51.95;34.65;;;;;;;4.81;82.03;100344.89;1715469;83;21074;-81
2021/11/01 03:35:56;;;;;;;48.40;34.10;;;;;;;4.76;81.80;100343.38;1715516;83;21070;-81
2021/11/01 03:38:23;;;;;;;49.65;34.00;;;;;;;4.71;81.78;100341.40;1715639;83;21051;-82
2021/11/01 03:40:50;;;;;;;47.67;33.20;;;;;;;4.67;81.83;100350.42;1715628;82;21787;-81
2021/11/01 03:43:26;;;;;;;50.98;33.90;;;;;;;4.66;81.89;100347.31;1715222;83;20987;-82
2021/11/01 03:45:45;;;;;;;50.05;33.28;;;;;;;4.63;81.87;100342.38;1713763;83;21114;-82
2021/11/01 03:48:14;;;;;;;53.73;33.70;;;;;;;4.61;81.89;100332.31;1715577;83;20999;-81
2021/11/01 03:50:47;;;;;;;46.75;32.90;;;;;;;4.56;81.87;100337.34;1715567;83;21548;-81
2021/11/01 03:53:11;;;;;;;50.30;32.35;;;;;;;4.55;81.94;100340.76;1714848;83;22778;-81
2021/11/01 03:55:39;;;;;;;46.53;32.60;;;;;;;4.50;81.87;100335.75;1715212;83;21057;-81
2021/11/01 03:58:06;;;;;;;50.10;34.45;;;;;;;4.50;81.98;100333.57;1715193;83;21125;-80
2021/11/01 04:00:35;;;;;;;48.33;31.87;;;;;;;4.44;81.95;100324.66;1715384;83;21034;-81
2021/11/01 04:03:02;;;;;;;47.78;31.23;;;;;;;4.43;82.15;100326.80;1715525;83;21113;-81
2021/11/01 04:05:30;;;;;;;49.25;32.40;;;;;;;4.42;82.19;100317.19;1715348;83;23109;-81
2021/11/01 04:07:56;;;;;;;46.02;32.15;;;;;;;4.42;82.29;100311.98;1715260;83;21076;-81
2021/11/01 04:10:23;;;;;;;46.30;32.17;;;;;;;4.40;82.26;100311.02;1715370;82;21081;-81
2021/11/01 04:12:50;;;;;;;51.53;32.70;;;;;;;4.39;82.33;100307.95;1715391;83;21073;-81
2021/11/01 04:15:25;;;;;;;49.00;32.67;;;;;;;4.39;82.27;100316.16;1715275;83;21089;-81
2021/11/01 04:17:59;;;;;;;48.90;31.95;;;;;;;4.39;82.38;100315.77;1715617;83;21791;-80
2021/11/01 04:20:30;;;;;;;53.15;33.42;;;;;;;4.31;82.45;100303.23;1715358;83;21050;-80
2021/11/01 04:23:01;;;;;;;48.28;31.77;;;;;;;4.39;82.57;100309.65;1714461;82;21066;-80
2021/11/01 04:25:23;;;;;;;47.60;32.85;;;;;;;4.40;82.59;100310.14;1713719;83;21066;-80
2021/11/01 04:27:50;;;;;;;50.78;32.55;;;;;;;4.40;82.70;100299.30;1715484;83;21042;-80
2021/11/01 04:30:17;;;;;;;47.83;32.28;;;;;;;4.42;82.69;100291.55;1715297;82;21770;-80
2021/11/01 04:32:44;;;;;;;45.25;32.60;;;;;;;4.43;82.74;100283.80;1715255;83;21104;-80
2021/11/01 04:37:42;;;;;;;43.92;30.65;;;;;;;4.43;82.81;100278.98;1715281;83;21717;-80
2021/11/01 04:40:27;;;;;;;50.73;33.15;;;;;;;4.45;82.94;100286.48;1715369;83;21176;-80
2021/11/01 04:43:09;;;;;;;50.23;32.60;;;;;;;4.47;82.98;100276.58;1713542;83;21892;-80
2021/11/01 04:53:27;;;;;;;48.70;33.85;;;;;;;4.54;83.06;100267.70;1715257;83;21621;-81
2021/11/01 04:55:54;;;;;;;49.03;32.67;;;;;;;4.55;83.18;100264.30;1715398;83;22623;-79
2021/11/01 04:58:23;;;;;;;50.05;34.45;;;;;;;4.56;83.13;100260.84;1715362;83;21074;-80
2021/11/01 05:00:51;;;;;;;47.33;33.53;;;;;;;4.57;83.22;100259.61;1715044;82;21039;-80
2021/11/01 05:05:47;;;;;;;54.33;35.98;;;;;;;4.68;83.40;100257.45;1715424;83;21144;-80
2021/11/01 05:08:16;;;;;;;50.25;35.43;;;;;;;4.69;83.33;100248.78;1715172;83;23041;-80
2021/11/01 05:10:45;;;;;;;54.60;35.00;;;;;;;4.68;83.30;100250.50;1715142;83;21715;-80
2021/11/01 05:13:19;;;;;;;52.03;35.28;;;;;;;4.71;83.44;100250.15;1715012;83;20995;-80
2021/11/01 05:15:46;;;;;;;47.55;35.65;;;;;;;4.74;83.44;100250.28;1713753;83;21211;-80
2021/11/01 05:18:20;;;;;;;44.60;32.38;;;;;;;4.74;83.30;100249.86;1714182;83;21061;-80
2021/11/01 05:20:49;;;;;;;46.90;32.83;;;;;;;4.76;83.33;100249.51;1714628;82;21804;-80
2021/11/01 05:23:18;;;;;;;50.38;33.50;;;;;;;4.75;83.28;100242.53;1714299;83;21003;-80
2021/11/01 05:30:41;;;;;;;46.77;34.75;;;;;;;4.72;83.15;100238.91;1715460;83;21023;-80
2021/11/01 05:35:38;;;;;;;54.10;35.73;;;;;;;4.70;83.11;100242.75;1715626;83;21552;-80
2021/11/01 05:38:04;;;;;;;47.55;32.42;;;;;;;4.59;83.10;100217.55;1715534;83;21677;-81
2021/11/01 05:40:31;;;;;;;51.13;33.70;;;;;;;4.70;83.13;100235.35;1715634;83;21313;-81
2021/11/01 05:42:58;;;;;;;49.42;33.98;;;;;;;4.70;83.19;100230.14;1715469;83;21061;-81
2021/11/01 05:45:28;;;;;;;56.02;35.85;;;;;;;4.70;83.23;100228.41;1715305;83;22586;-81
2021/11/01 05:48:02;;;;;;;51.02;33.80;;;;;;;4.74;83.29;100228.13;1715013;82;21054;-81
2021/11/01 05:50:28;;;;;;;48.40;33.55;;;;;;;4.74;83.09;100233.34;1714054;82;21365;-81
2021/11/01 05:52:55;;;;;;;51.45;34.45;;;;;;;4.72;83.07;100229.78;1715356;83;21248;-80
2021/11/01 05:55:47;;;;;;;55.45;34.18;;;;;;;4.72;83.12;100228.05;1715174;82;21065;-81
2021/11/01 05:58:28;;;;;;;49.13;33.40;;;;;;;4.73;83.16;100229.85;1689760;84;22607;-80
2021/11/01 06:01:13;;;;;;;48.95;33.90;;;;;;;4.75;83.11;100231.19;1689677;83;21081;-80
2021/11/01 06:03:28;;;;;;;53.20;36.17;;;;;;;4.75;83.21;100233.80;1687709;83;21078;-80
2021/11/01 06:13:51;;;;;;;50.33;35.15;;;;;;;4.87;83.31;100224.75;1691435;84;21027;-81
2021/11/01 06:16:17;;;;;;;45.38;32.53;;;;;;;4.91;83.28;100222.27;1691426;84;21125;-81
2021/11/01 06:18:44;;;;;;;47.03;33.08;;;;;;;4.95;83.28;100222.86;1691429;84;21560;-81
2021/11/01 06:21:16;;;;;;;50.25;34.13;;;;;;;4.98;83.29;100219.96;1691454;84;21105;-81
2021/11/01 06:23:51;;;;;;;49.63;34.03;;;;;;;5.04;83.32;100218.00;1691400;84;21751;-81
2021/11/01 06:26:17;;;;;;;51.02;35.50;;;;;;;5.10;83.39;100212.13;1691283;84;21077;-81
2021/11/01 06:28:46;;;;;;;50.35;35.28;;;;;;;5.18;83.34;100218.52;1691394;84;21599;-81
2021/11/01 06:31:16;;;;;;;54.05;35.63;;;;;;;5.23;83.29;100213.95;1691548;84;21129;-81
2021/11/01 06:39:19;;;;;;;50.65;33.30;;;;;;;5.38;83.11;100207.53;1691187;84;21746;-81
2021/11/01 06:41:44;;;;;;;52.80;34.98;;;;;;;5.43;83.06;100208.18;1687202;84;21082;-80
2021/11/01 06:52:42;;;;;;;53.40;34.88;;;;;;;5.63;82.93;100202.39;1691657;84;21588;-81
2021/11/01 07:16:46;;;;;;;49.85;34.60;;;;;;;6.17;82.48;100199.05;1715438;83;21859;-81
2021/11/01 08:22:07;;;;;;;43.55;30.10;;;;;;;8.36;80.45;100146.47;1723582;83;21007;-80
2021/11/01 08:48:58;;;;;;;40.98;26.45;;;;;;;9.24;78.66;100148.47;1722754;83;21583;-81
2021/11/01 08:51:36;;;;;;;39.70;26.10;;;;;;;9.34;78.51;100152.61;1721494;83;22691;-82
2021/11/01 09:02:28;;;;;;;35.28;26.25;;;;;;;9.71;77.75;100141.52;1722720;83;21026;-81
2021/11/01 09:07:31;;;;;;;36.88;25.65;;;;;;;9.84;77.49;100136.06;1722889;83;21065;-81
2021/11/01 09:20:58;;;;;;;34.75;25.00;;;;;;;10.12;76.55;100116.83;1723085;81;21367;-81
2021/11/01 09:25:48;;;;;;;36.70;25.77;;;;;;;10.24;76.29;100106.48;1723056;83;21088;-80
2021/11/01 09:28:14;;;;;;;38.60;26.35;;;;;;;10.31;76.10;100101.81;1721716;83;21141;-81
2021/11/01 09:36:10;;;;;;;35.23;22.90;;;;;;;10.50;75.61;100107.36;1722834;83;21101;-80
2021/11/01 09:41:05;;;;;;;33.05;24.27;;;;;;;10.61;75.31;100106.22;1723121;83;21088;-81
2021/11/01 09:43:28;;;;;;;34.00;26.25;;;;;;;10.66;75.18;100108.45;1722331;83;21791;-81
2021/11/01 09:46:00;;;;;;;35.63;25.00;;;;;;;10.70;75.06;100098.45;1723042;83;21030;-82
2021/11/01 09:48:27;;;;;;;32.20;23.75;;;;;;;10.77;74.93;100094.14;1723109;83;21547;-81
2021/11/01 09:50:55;;;;;;;31.05;23.70;;;;;;;10.83;74.80;100097.75;1723072;83;21115;-81
2021/11/01 09:53:25;;;;;;;35.03;23.62;;;;;;;10.91;74.67;100099.17;1723039;81;21049;-82
2021/11/01 10:01:16;;;;;;;33.70;25.10;;;;;;;11.08;74.31;100084.45;1714937;83;21121;-82
2021/11/01 10:03:47;;;;;;;37.08;25.72;;;;;;;11.15;74.11;100091.11;1715101;83;21004;-82
2021/11/01 10:06:23;;;;;;;34.43;23.18;;;;;;;11.23;74.03;100093.42;1715371;83;21093;-82
2021/11/01 10:08:55;;;;;;;31.80;23.60;;;;;;;11.27;73.79;100097.84;1715204;82;21759;-81
2021/11/01 10:11:25;;;;;;;32.65;22.70;;;;;;;11.31;73.68;100099.65;1715186;83;21051;-80
2021/11/01 10:13:59;;;;;;;32.58;23.75;;;;;;;11.34;73.55;100090.91;1715302;83;21034;-81
2021/11/01 10:19:41;;;;;;;27.65;20.70;;;;;;;11.41;73.24;100092.31;1715359;82;20213;-82
2021/11/01 10:22:23;;;;;;;27.82;20.75;;;;;;;11.48;73.23;100092.80;1715441;83;21770;-81
2021/11/01 10:24:42;;;;;;;29.55;21.80;;;;;;;11.55;73.17;100088.94;1713456;83;21141;-81
2021/11/01 10:27:11;;;;;;;28.15;21.95;;;;;;;11.61;73.07;100088.55;1715653;83;21521;-81
2021/11/01 10:29:57;;;;;;;28.23;21.15;;;;;;;11.69;72.98;100097.84;1715394;83;21217;-81
2021/11/01 10:32:32;;;;;;;30.65;22.37;;;;;;;11.75;72.79;100092.66;1715281;82;21082;-81
2021/11/01 10:35:22;;;;;;;26.57;19.98;;;;;;;11.80;72.75;100092.25;1715321;83;21848;-81
2021/11/01 10:38:17;;;;;;;32.03;20.80;;;;;;;11.89;72.70;100097.17;1715188;82;21066;-81
2021/11/01 10:57:52;;;;;;;27.70;19.85;;;;;;;12.18;71.25;100081.20;1715508;83;21194;-80
2021/11/01 11:10:57;;;;;;;26.12;19.45;;;;;;;12.28;70.68;100083.46;1715104;83;21065;-80
2021/11/01 11:13:22;;;;;;;25.68;19.17;;;;;;;12.32;70.76;100085.69;1714447;82;21156;-81
2021/11/01 11:15:52;;;;;;;30.20;18.85;;;;;;;12.36;70.53;100078.23;1715251;83;22451;-80
2021/11/01 11:18:46;;;;;;;28.40;20.37;;;;;;;12.39;70.45;100086.19;1714894;83;21050;-80
2021/11/01 11:21:45;;;;;;;27.93;20.75;;;;;;;12.44;70.31;100081.80;1710980;83;21567;-81
2021/11/01 11:24:12;;;;;;;26.77;18.35;;;;;;;12.47;70.19;100082.27;1702546;83;21011;-80
2021/11/01 11:29:25;;;;;;;26.52;20.10;;;;;;;12.53;69.92;100082.30;1715451;83;21819;-81
2021/11/01 11:40:22;;;;;;;24.25;18.42;;;;;;;12.60;69.48;100077.52;1665964;84;21084;-81
2021/11/01 11:43:09;;;;;;;29.37;19.73;;;;;;;12.59;69.34;100083.23;1664466;85;21799;-81
2021/11/01 11:48:40;;;;;;;24.82;19.60;;;;;;;12.62;69.20;100083.69;1665445;86;21593;-81
2021/11/01 11:50:41;;;;;;;26.97;19.48;;;;;;;12.66;69.22;100085.91;1658814;86;21600;-81
2021/11/01 11:53:20;;;;;;;27.98;20.40;;;;;;;12.68;69.15;100096.04;1665597;85;21170;-81
2021/11/01 11:56:07;;;;;;;30.82;20.35;;;;;;;12.70;69.15;100091.64;1665387;86;21733;-81
2021/11/01 11:58:38;;;;;;;27.80;19.95;;;;;;;12.73;69.13;100098.28;1667441;85;21126;-81
2021/11/01 12:01:35;;;;;;;29.15;21.52;;;;;;;12.76;69.06;100093.90;1671939;85;21151;-82
2021/11/01 12:04:06;;;;;;;26.02;19.75;;;;;;;12.78;68.95;100097.84;1672679;85;21086;-81
2021/11/01 12:06:51;;;;;;;29.80;22.15;;;;;;;12.79;68.90;100091.70;1672884;85;21127;-81
2021/11/01 12:09:20;;;;;;;26.77;19.40;;;;;;;12.79;68.79;100088.61;1671386;85;22153;-82
2021/11/01 12:14:41;;;;;;;26.45;20.08;;;;;;;12.84;68.67;100088.66;1723167;83;21072;-82
2021/11/01 12:17:13;;;;;;;31.30;21.30;;;;;;;12.85;68.63;100082.48;1722123;83;21026;-82
2021/11/01 12:19:33;;;;;;;26.77;19.85;;;;;;;12.88;68.59;100078.98;1720355;81;21113;-82
2021/11/01 12:22:05;;;;;;;26.65;20.68;;;;;;;12.89;68.57;100079.42;1723302;83;21751;-82
2021/11/01 12:24:31;;;;;;;29.80;19.98;;;;;;;12.89;68.43;100078.97;1722684;83;21142;-81
2021/11/01 12:27:09;;;;;;;28.42;21.45;;;;;;;12.90;68.34;100080.75;1723060;83;21014;-82
2021/11/01 12:29:36;;;;;;;31.55;22.37;;;;;;;12.92;68.32;100082.96;1722992;83;21109;-81
2021/11/01 12:32:08;;;;;;;28.60;21.05;;;;;;;12.92;68.27;100081.64;1723145;83;21081;-81
2021/11/01 12:34:42;;;;;;;32.00;22.45;;;;;;;12.93;68.23;100083.83;1723174;81;22526;-80
2021/11/01 12:37:11;;;;;;;29.42;21.75;;;;;;;12.90;68.12;100083.39;1720805;83;21092;-81
2021/11/01 12:39:40;;;;;;;26.80;20.65;;;;;;;12.91;68.13;100085.14;1672627;83;21085;-81
2021/11/01 12:42:38;;;;;;;30.77;22.65;;;;;;;12.90;68.08;100084.72;1722770;83;21202;-81
2021/11/01 12:58:59;;;;;;;30.88;20.65;;;;;;;12.97;67.94;100090.48;1722807;83;21199;-81
2021/11/01 13:01:31;;;;;;;28.92;19.73;;;;;;;12.96;67.86;100091.34;1722927;83;21847;-81
2021/11/01 13:04:18;;;;;;;31.00;19.65;;;;;;;12.95;67.85;100090.91;1721565;83;21658;-81
2021/11/01 13:06:58;;;;;;;23.75;18.17;;;;;;;12.96;67.81;100097.94;1720965;83;21638;-81
2021/11/01 13:09:27;;;;;;;26.90;19.45;;;;;;;12.97;67.75;100099.72;1721019;83;21057;-80
2021/11/01 13:19:49;;;;;;;25.97;18.85;;;;;;;12.96;67.62;100100.58;1722932;83;21070;-81
2021/11/01 13:22:25;;;;;;;28.92;19.87;;;;;;;12.95;67.63;100097.52;1723026;83;21062;-81
2021/11/01 13:24:56;;;;;;;24.72;18.23;;;;;;;12.94;67.55;100100.14;1722128;81;21306;-81
2021/11/01 13:36:27;;;;;;;31.48;19.37;;;;;;;12.87;67.32;100097.02;1722962;83;21051;-81
2021/11/01 13:38:26;;;;;;;30.08;19.42;;;;;;;12.83;67.33;100097.44;1710075;83;21088;-81
2021/11/01 13:40:53;;;;;;;26.10;19.35;;;;;;;12.80;67.28;100102.69;1722878;83;21811;-81
2021/11/01 13:43:28;;;;;;;24.72;18.25;;;;;;;12.77;67.29;100099.61;1722988;83;21029;-81
2021/11/01 13:45:58;;;;;;;24.52;19.62;;;;;;;12.74;67.33;100098.27;1722878;83;21014;-81
2021/11/01 13:48:30;;;;;;;28.35;20.68;;;;;;;12.71;67.37;100101.34;1723045;81;21078;-81
2021/11/01 13:51:11;;;;;;;27.77;19.17;;;;;;;12.67;67.38;100103.50;1723300;83;21303;-81
2021/11/01 13:53:59;;;;;;;27.52;19.90;;;;;;;12.64;67.37;100103.93;1723267;83;22532;-80
2021/11/01 13:56:24;;;;;;;27.10;20.05;;;;;;;12.61;67.35;100105.25;1721580;83;21113;-81
2021/11/01 13:59:10;;;;;;;25.17;18.92;;;;;;;12.60;67.43;100102.16;1720840;83;21006;-81
2021/11/01 14:14:51;;;;;;;27.77;19.57;;;;;;;12.36;67.72;100112.55;1715206;82;21054;-81
2021/11/01 14:36:02;;;;;;;49.73;33.48;;;;;;;11.80;68.10;100131.80;1715131;83;21050;-81
2021/11/01 15:16:12;;;;;;;71.07;34.63;;;;;;;10.54;69.60;100168.38;1723162;83;20983;-80
2021/11/01 15:18:36;;;;;;;60.03;35.92;;;;;;;10.49;69.81;100173.99;1720185;83;21150;-81
2021/11/01 15:23:56;;;;;;;64.10;40.98;;;;;;;10.37;69.99;100178.63;1693358;83;21109;-81
2021/11/01 15:34:29;;;;;;;178.50;97.20;;;;;;;10.10;70.44;100189.55;1723065;83;21180;-81
2021/11/01 15:37:09;;;;;;;191.70;111.83;;;;;;;10.05;70.59;100189.45;1718738;83;21073;-81
2021/11/01 16:19:54;;;;;;;72.08;43.60;;;;;;;10.42;71.67;100194.08;1715208;83;21784;-82
2021/11/01 16:22:18;;;;;;;70.55;44.77;;;;;;;10.46;71.69;100194.58;1714197;83;21057;-82
2021/11/01 16:24:48;;;;;;;67.60;44.33;;;;;;;10.52;71.71;100183.27;1715175;83;21105;-82
2021/11/01 16:27:18;;;;;;;78.65;46.75;;;;;;;10.58;71.69;100189.05;1715339;83;21073;-82
2021/11/01 16:30:00;;;;;;;78.15;48.42;;;;;;;10.64;71.65;100190.45;1715204;83;21129;-82
2021/11/01 16:32:28;;;;;;;105.55;58.87;;;;;;;10.70;71.64;100191.89;1714152;83;21782;-82
2021/11/01 16:34:57;;;;;;;103.90;57.20;;;;;;;10.75;71.59;100182.30;1715004;83;21521;-82
2021/11/01 16:37:29;;;;;;;118.60;65.08;;;;;;;10.82;71.56;100189.43;1715407;83;21083;-82
2021/11/01 16:40:00;;;;;;;114.12;65.70;;;;;;;10.86;71.52;100185.09;1715264;82;21070;-81
2021/11/01 16:42:31;;;;;;;127.75;72.00;;;;;;;10.89;71.49;100180.77;1715143;83;21073;-82
2021/11/01 16:45:06;;;;;;;131.18;74.80;;;;;;;10.93;71.44;100184.77;1715508;83;21847;-82
2021/11/01 16:47:29;;;;;;;107.35;64.62;;;;;;;10.96;71.41;100185.70;1714498;83;21018;-82
2021/11/01 16:49:55;;;;;;;95.62;58.87;;;;;;;10.99;71.41;100188.80;1715352;83;21555;-83
2021/11/01 16:52:22;;;;;;;95.38;57.10;;;;;;;11.01;71.39;100183.13;1715245;83;21101;-82
2021/11/01 16:54:58;;;;;;;84.75;53.60;;;;;;;11.04;71.36;100185.81;1715323;83;21066;-82
2021/11/01 16:57:38;;;;;;;80.38;51.45;;;;;;;11.05;71.33;100187.13;1715035;83;21834;-82
2021/11/01 17:00:24;;;;;;;78.83;49.53;;;;;;;11.07;71.35;100176.20;1717785;83;21052;-82
2021/11/01 17:05:17;;;;;;;98.45;60.12;;;;;;;11.12;71.29;100174.94;1723243;81;21085;-82
2021/11/01 17:07:53;;;;;;;97.53;61.53;;;;;;;11.14;71.27;100175.84;1721895;82;21354;-82
2021/11/01 17:10:27;;;;;;;107.58;66.62;;;;;;;11.17;71.27;100173.25;1719721;83;21782;-82
2021/11/01 17:24:04;;;;;;;76.00;49.40;;;;;;;11.21;71.26;100171.11;1723544;83;21968;-80
2021/11/01 17:26:30;;;;;;;84.28;54.03;;;;;;;11.21;71.30;100172.86;1719258;83;21073;-81
2021/11/01 17:37:13;;;;;;;115.82;64.17;;;;;;;11.25;71.36;100167.64;1723493;83;21777;-82
2021/11/01 18:40:44;;;;;;;52.25;34.00;;;;;;;10.70;71.03;100160.31;1715327;82;21004;-81
2021/11/01 18:51:39;;;;;;;54.65;33.65;;;;;;;10.14;71.22;100161.12;1715905;82;21117;-83
2021/11/01 18:54:18;;;;;;;61.25;36.70;;;;;;;10.00;71.31;100160.86;1714142;83;21534;-79
2021/11/01 18:56:52;;;;;;;63.00;36.83;;;;;;;9.90;71.48;100159.81;1716159;83;21047;-81
2021/11/01 18:59:16;;;;;;;60.23;38.15;;;;;;;9.80;71.54;100163.16;1694070;83;22534;-83
2021/11/01 19:01:50;;;;;;;65.57;37.85;;;;;;;9.72;71.67;100161.70;1724545;82;21050;-82
2021/11/01 19:04:24;;;;;;;60.83;38.02;;;;;;;9.65;71.74;100161.55;1727536;82;21086;-83
2021/11/01 19:09:37;;;;;;;66.45;41.10;;;;;;;9.48;72.00;100167.36;1728268;82;21535;-82
2021/11/01 19:12:52;;;;;;;62.58;39.50;;;;;;;9.46;72.12;100176.04;1727304;81;22789;-83
2021/11/01 20:05:13;;;;;;;63.85;42.13;;;;;;;9.19;72.80;100171.12;1723452;81;21078;-83
2021/11/01 20:11:10;;;;;;;62.67;42.85;;;;;;;9.21;72.96;100170.72;1723302;82;21094;-85
2021/11/01 21:25:54;;;;;;;64.42;41.00;;;;;;;7.81;73.76;100185.67;1715411;83;21138;-84
2021/11/01 21:28:21;;;;;;;68.02;41.37;;;;;;;7.72;73.90;100187.20;1715553;83;21145;-84
2021/11/01 21:30:48;;;;;;;62.43;40.43;;;;;;;7.67;74.00;100191.86;1715541;83;21793;-84
2021/11/01 21:33:23;;;;;;;57.10;38.33;;;;;;;7.60;74.07;100189.47;1683502;85;21537;-85
2021/11/01 21:35:50;;;;;;;60.05;38.15;;;;;;;7.53;74.09;100186.25;1715248;83;21060;-85
2021/11/01 21:38:17;;;;;;;57.17;37.38;;;;;;;7.47;74.20;100185.66;1715278;83;21221;-85
2021/11/01 21:40:45;;;;;;;59.13;37.90;;;;;;;7.40;74.31;100183.70;1715389;83;21203;-85